createdAt,value
2022-12-18T00:01:22.251Z,5.13
2022-12-18T00:03:56.236Z,5.57
2022-12-18T00:06:31.056Z,4.87
2022-12-18T00:09:04.467Z,5.33
2022-12-18T00:11:37.453Z,6.10
2022-12-18T00:14:11.051Z,5.13
2022-12-18T00:16:47.531Z,5.23
2022-12-18T00:19:20.511Z,4.17
2022-12-18T00:21:53.437Z,4.53
2022-12-18T00:24:27.357Z,5.20
2022-12-18T00:27:00.283Z,5.13
2022-12-18T00:29:33.245Z,6.33
2022-12-18T00:32:06.219Z,5.80
2022-12-18T00:34:39.238Z,4.77
2022-12-18T00:37:15.615Z,5.83
2022-12-18T00:39:52.808Z,5.00
2022-12-18T00:43:04.969Z,4.53
2022-12-18T00:45:38.074Z,4.90
2022-12-18T00:48:11.062Z,10.17
2022-12-18T00:50:44.152Z,6.20
2022-12-18T00:53:17.268Z,6.23
2022-12-18T00:55:50.430Z,6.47
2022-12-18T00:58:23.414Z,5.77
2022-12-18T01:00:56.429Z,6.57
2022-12-18T01:03:29.396Z,4.17
2022-12-18T01:06:07.474Z,5.63
2022-12-18T01:08:40.851Z,5.00
2022-12-18T01:11:18.319Z,5.30
2022-12-18T01:13:51.420Z,5.07
2022-12-18T01:16:24.798Z,4.17
2022-12-18T01:18:57.980Z,4.13
2022-12-18T01:21:33.957Z,4.03
2022-12-18T01:24:13.274Z,4.93
2022-12-18T01:26:46.208Z,4.27
2022-12-18T01:29:21.111Z,4.20
2022-12-18T01:31:56.438Z,4.63
2022-12-18T01:34:29.499Z,4.67
2022-12-18T01:37:04.303Z,4.10
2022-12-18T01:39:37.303Z,4.07
2022-12-18T01:42:12.606Z,4.63
2022-12-18T01:44:57.597Z,5.73
2022-12-18T01:47:34.008Z,5.80
2022-12-18T01:50:09.180Z,3.43
2022-12-18T01:52:54.408Z,4.50
2022-12-18T01:55:29.614Z,3.60
2022-12-18T01:58:02.924Z,4.53
2022-12-18T02:00:36.321Z,4.60
2022-12-18T02:03:09.611Z,3.67
2022-12-18T02:05:47.860Z,3.63
2022-12-18T02:08:42.746Z,4.43
2022-12-18T02:11:21.584Z,5.30
2022-12-18T02:14:03.340Z,3.63
2022-12-18T02:16:36.587Z,4.87
2022-12-18T02:19:30.043Z,4.37
2022-12-18T02:22:26.535Z,4.10
2022-12-18T02:25:18.430Z,4.57
2022-12-18T02:27:52.634Z,3.40
2022-12-18T02:30:28.613Z,3.30
2022-12-18T02:33:02.768Z,3.53
2022-12-18T02:35:37.655Z,4.70
2022-12-18T02:38:11.044Z,4.57
2022-12-18T02:40:45.818Z,4.60
2022-12-18T02:43:20.916Z,3.60
2022-12-18T02:45:55.901Z,4.77
2022-12-18T02:48:34.283Z,3.20
2022-12-18T02:51:17.660Z,3.90
2022-12-18T02:53:58.016Z,3.73
2022-12-18T02:56:34.328Z,3.83
2022-12-18T02:59:11.428Z,3.33
2022-12-18T03:01:57.761Z,3.50
2022-12-18T03:04:34.261Z,4.40
2022-12-18T03:07:12.257Z,2.90
2022-12-18T03:09:48.282Z,3.93
2022-12-18T03:12:37.003Z,3.07
2022-12-18T03:15:17.489Z,7.23
2022-12-18T03:17:54.981Z,4.87
2022-12-18T03:20:33.049Z,3.43
2022-12-18T03:23:09.293Z,4.50
2022-12-18T03:25:43.690Z,3.63
2022-12-18T03:28:18.394Z,4.63
2022-12-18T03:30:55.290Z,2.97
2022-12-18T03:33:34.266Z,4.60
2022-12-18T03:36:07.316Z,3.47
2022-12-18T03:38:40.635Z,3.83
2022-12-18T03:41:30.184Z,3.77
2022-12-18T03:44:39.219Z,4.93
2022-12-18T03:47:21.089Z,3.43
2022-12-18T03:50:13.172Z,2.93
2022-12-18T03:52:51.564Z,3.87
2022-12-18T03:55:26.643Z,3.60
2022-12-18T03:58:06.166Z,3.53
2022-12-18T04:00:51.646Z,3.13
2022-12-18T04:03:26.757Z,3.10
2022-12-18T04:06:13.325Z,2.67
2022-12-18T04:08:48.250Z,2.77
2022-12-18T04:11:24.525Z,3.33
2022-12-18T04:13:58.528Z,3.43
2022-12-18T04:16:31.547Z,3.33
2022-12-18T04:19:07.978Z,2.47
2022-12-18T04:21:45.689Z,4.33
2022-12-18T04:24:20.224Z,3.37
2022-12-18T04:27:03.956Z,3.40
2022-12-18T04:29:40.610Z,2.93
2022-12-18T04:32:13.572Z,3.87
2022-12-18T04:34:49.160Z,2.67
2022-12-18T04:37:22.384Z,3.27
2022-12-18T04:39:56.692Z,3.67
2022-12-18T04:42:37.714Z,2.87
2022-12-18T04:45:10.860Z,3.43
2022-12-18T04:47:43.874Z,3.13
2022-12-18T04:50:16.842Z,3.80
2022-12-18T04:52:52.067Z,3.33
2022-12-18T04:55:27.782Z,3.70
2022-12-18T04:58:00.765Z,3.53
2022-12-18T05:00:33.713Z,3.10
2022-12-18T05:03:06.723Z,2.57
2022-12-18T05:05:39.670Z,2.50
2022-12-18T05:08:12.885Z,2.90
2022-12-18T05:10:45.865Z,3.20
2022-12-18T05:13:18.925Z,2.67
2022-12-18T05:15:55.127Z,3.70
2022-12-18T05:18:28.527Z,2.73
2022-12-18T05:21:01.670Z,2.77
2022-12-18T05:23:36.143Z,3.40
2022-12-18T05:26:17.023Z,3.97
2022-12-18T05:28:50.053Z,2.40
2022-12-18T05:31:23.071Z,3.10
2022-12-18T05:33:56.082Z,4.37
2022-12-18T05:36:29.127Z,4.30
2022-12-18T05:39:02.103Z,3.63
2022-12-18T05:41:35.219Z,5.90
2022-12-18T05:44:08.135Z,4.30
2022-12-18T05:46:44.343Z,4.43
2022-12-18T05:49:17.335Z,5.87
2022-12-18T05:51:50.787Z,3.43
2022-12-18T05:54:23.813Z,3.60
2022-12-18T05:56:56.831Z,4.03
2022-12-18T05:59:29.793Z,4.47
2022-12-18T06:02:02.871Z,4.77
2022-12-18T06:04:35.915Z,4.17
2022-12-18T06:07:08.872Z,4.43
2022-12-18T06:09:42.143Z,5.37
2022-12-18T06:12:15.133Z,5.10
2022-12-18T06:14:48.066Z,3.70
2022-12-18T06:17:21.134Z,4.40
2022-12-18T06:19:54.123Z,4.57
2022-12-18T06:22:27.093Z,3.70
2022-12-18T06:25:00.378Z,6.23
2022-12-18T06:27:34.479Z,5.07
2022-12-18T06:30:07.917Z,5.13
2022-12-18T06:32:40.840Z,4.93
2022-12-18T06:35:13.771Z,6.00
2022-12-18T06:37:46.687Z,5.20
2022-12-18T06:40:19.743Z,4.63
2022-12-18T06:42:52.650Z,4.67
2022-12-18T06:45:26.155Z,4.23
2022-12-18T06:47:59.160Z,5.33
2022-12-18T06:50:32.260Z,4.90
2022-12-18T06:53:05.298Z,3.83
2022-12-18T06:55:40.119Z,3.77
2022-12-18T06:58:14.523Z,4.60
2022-12-18T07:00:47.504Z,4.70
2022-12-18T07:03:20.592Z,4.37
2022-12-18T07:05:53.554Z,6.33
2022-12-18T07:08:26.515Z,6.23
2022-12-18T07:10:59.482Z,11.27
2022-12-18T07:13:32.775Z,6.37
2022-12-18T07:16:11.244Z,7.83
2022-12-18T07:18:49.139Z,6.13
2022-12-18T07:21:22.728Z,4.23
2022-12-18T07:23:55.772Z,4.77
2022-12-18T07:26:28.713Z,4.70
2022-12-18T07:29:01.700Z,5.70
2022-12-18T07:31:34.664Z,5.73
2022-12-18T07:34:11.220Z,4.37
2022-12-18T07:36:44.598Z,7.88
2022-12-18T07:39:17.603Z,5.57
2022-12-18T07:42:10.494Z,4.20
2022-12-18T07:44:47.175Z,5.73
2022-12-18T07:47:20.327Z,5.93
2022-12-18T07:49:53.532Z,5.13
2022-12-18T07:52:26.547Z,4.07
2022-12-18T07:54:59.513Z,5.37
2022-12-18T07:58:01.535Z,5.93
2022-12-18T08:00:25.391Z,4.23
2022-12-18T08:02:58.681Z,5.10
2022-12-18T08:05:31.749Z,6.60
2022-12-18T08:08:05.876Z,5.03
2022-12-18T08:10:40.000Z,6.27
2022-12-18T08:13:12.930Z,6.33
2022-12-18T08:15:45.861Z,6.70
2022-12-18T08:18:18.766Z,3.80
2022-12-18T08:20:51.732Z,5.03
2022-12-18T08:23:39.287Z,5.80
2022-12-18T08:26:15.272Z,5.37
2022-12-18T08:28:48.568Z,5.10
2022-12-18T08:31:22.770Z,5.77
2022-12-18T08:33:57.563Z,6.77
2022-12-18T08:36:30.538Z,5.30
2022-12-18T08:39:03.774Z,7.07
2022-12-18T08:41:36.748Z,6.30
2022-12-18T08:44:28.477Z,4.73
2022-12-18T08:47:01.429Z,6.33
2022-12-18T08:49:35.042Z,6.30
2022-12-18T08:52:08.351Z,6.13
2022-12-18T08:54:41.414Z,6.40
2022-12-18T08:57:14.375Z,3.33
2022-12-18T08:59:47.360Z,5.80
2022-12-18T09:02:20.597Z,6.40
2022-12-18T09:04:57.286Z,6.33
2022-12-18T09:07:30.807Z,3.93
2022-12-18T09:10:03.885Z,5.77
2022-12-18T09:12:36.822Z,6.03
2022-12-18T09:15:09.956Z,5.57
2022-12-18T09:17:42.884Z,3.80
2022-12-18T09:20:15.864Z,5.37
2022-12-18T09:22:49.548Z,6.23
2022-12-18T09:25:23.051Z,3.80
2022-12-18T09:27:56.508Z,5.13
2022-12-18T09:30:29.638Z,6.37
2022-12-18T09:33:02.630Z,4.23
2022-12-18T09:35:42.382Z,5.67
2022-12-18T09:38:20.748Z,5.87
2022-12-18T09:40:55.347Z,5.33
2022-12-18T09:43:30.868Z,4.70
2022-12-18T09:46:06.803Z,4.07
2022-12-18T09:48:42.076Z,6.23
2022-12-18T09:51:20.545Z,4.97
2022-12-18T09:54:07.787Z,6.03
2022-12-18T09:56:42.407Z,7.57
2022-12-18T09:59:26.761Z,4.60
2022-12-18T10:01:59.790Z,7.80
2022-12-18T10:04:33.732Z,7.67
2022-12-18T10:07:14.842Z,6.87
2022-12-18T10:10:02.975Z,10.00
2022-12-18T10:12:44.323Z,8.20
2022-12-18T10:15:25.740Z,7.10
2022-12-18T10:18:01.719Z,5.20
2022-12-18T10:20:38.958Z,5.37
2022-12-18T10:23:35.140Z,5.53
2022-12-18T10:26:09.134Z,6.43
2022-12-18T10:28:43.417Z,3.93
2022-12-18T10:31:24.292Z,5.63
2022-12-18T10:33:57.847Z,6.20
2022-12-18T10:36:30.840Z,5.37
2022-12-18T10:39:36.264Z,5.43
2022-12-18T10:42:17.534Z,6.37
2022-12-18T10:45:02.930Z,7.63
2022-12-18T10:47:36.191Z,5.73
2022-12-18T10:50:20.290Z,6.27
2022-12-18T10:52:57.383Z,7.93
2022-12-18T10:55:35.039Z,6.87
2022-12-18T10:58:28.220Z,7.37
2022-12-18T11:01:07.274Z,5.10
2022-12-18T11:03:47.668Z,6.87
2022-12-18T11:06:25.447Z,7.40
2022-12-18T11:09:06.567Z,6.27
2022-12-18T11:11:42.616Z,6.23
2022-12-18T11:14:19.225Z,8.10
2022-12-18T11:19:46.690Z,7.13
2022-12-18T11:22:25.231Z,7.20
2022-12-18T11:27:55.020Z,7.60
2022-12-18T11:30:35.537Z,7.97
2022-12-18T11:33:17.827Z,15.63
2022-12-18T11:35:53.570Z,9.43
2022-12-18T11:38:30.190Z,8.13
2022-12-18T11:41:12.567Z,9.23
2022-12-18T11:43:59.007Z,7.90
2022-12-18T11:46:37.820Z,6.60
2022-12-18T11:49:27.104Z,7.73
2022-12-18T11:52:05.500Z,8.43
2022-12-18T11:54:38.873Z,7.80
2022-12-18T11:57:11.780Z,8.40
2022-12-18T11:59:57.626Z,8.20
2022-12-18T12:02:44.422Z,9.50
2022-12-18T12:05:35.980Z,7.43
2022-12-18T12:08:14.935Z,9.90
2022-12-18T12:10:55.027Z,7.57
2022-12-18T12:13:52.269Z,9.80
2022-12-18T12:16:39.226Z,7.97
2022-12-18T12:19:23.728Z,9.60
2022-12-18T12:22:04.714Z,7.53
2022-12-18T12:24:56.405Z,7.50
2022-12-18T12:27:47.497Z,6.60
2022-12-18T12:30:22.772Z,7.90
2022-12-18T12:33:04.430Z,8.77
2022-12-18T12:35:37.332Z,9.33
2022-12-18T12:38:14.376Z,8.20
2022-12-18T12:40:56.618Z,7.03
2022-12-18T12:43:49.468Z,9.27
2022-12-18T12:46:25.127Z,8.13
2022-12-18T12:49:00.195Z,8.27
2022-12-18T12:51:37.291Z,8.67
2022-12-18T12:54:17.168Z,10.00
2022-12-18T12:56:57.099Z,4.83
2022-12-18T12:59:46.860Z,7.63
2022-12-18T13:02:24.251Z,9.23
2022-12-18T13:05:02.027Z,7.27
2022-12-18T13:07:41.450Z,7.57
2022-12-18T13:10:27.181Z,7.90
2022-12-18T13:13:13.553Z,7.13
2022-12-18T13:15:51.507Z,9.20
2022-12-18T13:18:26.188Z,7.43
2022-12-18T13:21:03.039Z,9.63
2022-12-18T13:23:41.412Z,8.43
2022-12-18T13:26:15.447Z,9.67
2022-12-18T13:28:48.430Z,9.73
2022-12-18T13:31:40.593Z,5.73
2022-12-18T13:34:27.594Z,7.27
2022-12-18T13:37:21.714Z,7.93
2022-12-18T13:39:54.693Z,8.47
2022-12-18T13:42:49.493Z,8.00
2022-12-18T13:45:39.475Z,6.00
2022-12-18T13:48:33.084Z,8.87
2022-12-18T13:51:08.329Z,8.47
2022-12-18T13:53:45.104Z,8.37
2022-12-18T13:56:25.516Z,9.13
2022-12-18T13:59:07.242Z,11.23
2022-12-18T14:01:47.860Z,7.90
2022-12-18T14:04:32.280Z,17.13
2022-12-18T14:07:07.165Z,10.63
2022-12-18T14:09:43.483Z,10.20
2022-12-18T14:12:45.519Z,10.10
2022-12-18T14:15:27.881Z,8.77
2022-12-18T14:18:16.198Z,9.03
2022-12-18T14:20:52.849Z,7.60
2022-12-18T14:23:43.206Z,9.27
2022-12-18T14:26:22.000Z,7.53
2022-12-18T14:28:56.368Z,8.93
2022-12-18T14:31:30.691Z,8.87
2022-12-18T14:34:03.661Z,9.43
2022-12-18T14:36:36.606Z,8.97
2022-12-18T14:39:18.082Z,9.35
2022-12-18T14:41:51.206Z,8.93
2022-12-18T14:44:24.137Z,9.57
2022-12-18T14:46:57.414Z,10.67
2022-12-18T14:49:37.663Z,9.00
2022-12-18T14:52:22.757Z,10.10
2022-12-18T14:54:56.158Z,8.43
2022-12-18T14:57:36.096Z,9.77
2022-12-18T15:00:16.366Z,10.47
2022-12-18T15:02:54.124Z,14.00
2022-12-18T15:05:30.897Z,10.87
2022-12-18T15:08:04.198Z,9.10
2022-12-18T15:10:48.025Z,8.67
2022-12-18T15:13:25.265Z,9.67
2022-12-18T15:15:59.988Z,11.00
2022-12-18T15:18:36.571Z,9.20
2022-12-18T15:21:10.919Z,7.83
2022-12-18T15:23:52.181Z,8.97
2022-12-18T15:26:25.165Z,10.03
2022-12-18T15:29:03.852Z,9.20
2022-12-18T15:31:36.824Z,7.30
2022-12-18T15:34:09.732Z,9.40
2022-12-18T15:36:42.813Z,8.30
2022-12-18T15:39:15.916Z,8.97
2022-12-18T15:42:07.629Z,9.63
2022-12-18T15:44:40.639Z,9.00
2022-12-18T15:47:14.286Z,9.60
2022-12-18T15:49:47.293Z,8.77
2022-12-18T15:52:26.733Z,9.73
2022-12-18T15:55:18.392Z,8.53
2022-12-18T15:57:51.316Z,7.87
2022-12-18T16:00:24.346Z,9.53
2022-12-18T16:02:57.552Z,10.53
2022-12-18T16:05:31.250Z,10.10
2022-12-18T16:08:04.254Z,18.63
2022-12-18T16:10:37.238Z,11.17
2022-12-18T16:13:14.304Z,11.07
2022-12-18T16:15:47.407Z,8.67
2022-12-18T16:18:20.393Z,9.60
2022-12-18T16:20:53.362Z,9.17
2022-12-18T16:23:27.963Z,16.52
2022-12-18T16:26:00.958Z,12.40
2022-12-18T16:28:33.891Z,10.60
2022-12-18T16:31:06.915Z,9.70
2022-12-18T16:33:40.429Z,9.37
2022-12-18T16:36:14.590Z,9.90
2022-12-18T16:38:48.969Z,10.87
2022-12-18T16:41:31.886Z,10.90
2022-12-18T16:44:05.112Z,8.83
2022-12-18T16:46:38.554Z,9.53
2022-12-18T16:49:11.760Z,6.67
2022-12-18T16:51:44.760Z,7.97
2022-12-18T16:54:19.680Z,8.47
2022-12-18T16:56:52.980Z,9.60
2022-12-18T16:59:26.732Z,8.83
2022-12-18T17:01:59.803Z,9.83
2022-12-18T17:04:33.623Z,9.53
2022-12-18T17:07:06.554Z,8.60
2022-12-18T17:09:39.607Z,8.93
2022-12-18T17:12:13.173Z,9.27
2022-12-18T17:14:46.197Z,8.47
2022-12-18T17:17:22.355Z,8.60
2022-12-18T17:19:56.032Z,10.00
2022-12-18T17:22:29.031Z,9.93
2022-12-18T17:25:01.958Z,9.43
2022-12-18T17:27:35.038Z,7.57
2022-12-18T17:30:08.398Z,6.37
2022-12-18T17:32:41.423Z,10.77
2022-12-18T17:35:14.400Z,9.70
2022-12-18T17:37:48.686Z,9.07
2022-12-18T17:40:21.659Z,11.10
2022-12-18T17:42:54.675Z,9.03
2022-12-18T17:45:28.033Z,9.93
2022-12-18T17:48:00.983Z,10.17
2022-12-18T17:50:34.434Z,8.77
2022-12-18T17:53:07.428Z,15.95
2022-12-18T17:55:40.357Z,11.33
2022-12-18T17:58:13.445Z,10.57
2022-12-18T18:00:46.547Z,9.83
2022-12-18T18:03:19.671Z,9.40
2022-12-18T18:05:57.101Z,10.60
2022-12-18T18:08:31.874Z,9.93
2022-12-18T18:11:28.158Z,9.73
2022-12-18T18:14:05.053Z,11.47
2022-12-18T18:16:39.368Z,15.90
2022-12-18T18:19:13.809Z,11.00
2022-12-18T18:21:47.626Z,10.07
2022-12-18T18:24:25.786Z,8.27
2022-12-18T18:26:59.914Z,9.27
2022-12-18T18:29:33.157Z,10.93
2022-12-18T18:32:06.212Z,9.63
2022-12-18T18:34:42.428Z,9.67
2022-12-18T18:37:15.523Z,11.90
2022-12-18T18:39:48.489Z,9.73
2022-12-18T18:42:21.431Z,10.67
2022-12-18T18:44:54.408Z,9.97
2022-12-18T18:47:30.133Z,10.87
2022-12-18T18:50:03.145Z,10.53
2022-12-18T18:52:36.065Z,11.20
2022-12-18T18:55:13.692Z,8.33
2022-12-18T18:57:55.339Z,10.47
2022-12-18T19:00:28.266Z,10.30
2022-12-18T19:03:02.087Z,9.53
2022-12-18T19:05:35.295Z,9.80
2022-12-18T19:08:08.308Z,8.50
2022-12-18T19:10:41.752Z,8.43
2022-12-18T19:13:21.390Z,9.07
2022-12-18T19:16:03.660Z,9.33
2022-12-18T19:18:38.319Z,9.53
2022-12-18T19:21:11.935Z,10.07
2022-12-18T19:23:44.959Z,9.23
2022-12-18T19:26:27.301Z,9.60
2022-12-18T19:29:05.482Z,10.03
2022-12-18T19:31:38.584Z,11.00
2022-12-18T19:34:12.089Z,9.43
2022-12-18T19:36:45.041Z,10.93
2022-12-18T19:39:19.233Z,9.33
2022-12-18T19:41:52.512Z,10.97
2022-12-18T19:44:25.511Z,10.00
2022-12-18T19:46:58.477Z,8.33
2022-12-18T19:49:32.567Z,9.30
2022-12-18T19:52:05.787Z,10.43
2022-12-18T19:54:38.799Z,9.80
2022-12-18T19:57:12.378Z,10.53
2022-12-18T19:59:45.352Z,10.07
2022-12-18T20:02:21.509Z,10.20
2022-12-18T20:04:55.284Z,11.00
2022-12-18T20:07:28.233Z,11.20
2022-12-18T20:10:08.636Z,9.63
2022-12-18T20:12:42.186Z,10.60
2022-12-18T20:15:15.197Z,10.30
2022-12-18T20:17:48.212Z,10.93
2022-12-18T20:20:21.255Z,10.60
2022-12-18T20:22:54.766Z,9.33
2022-12-18T20:25:27.695Z,10.53
2022-12-18T20:28:00.636Z,9.33
2022-12-18T20:30:33.583Z,9.50
2022-12-18T20:33:06.536Z,9.03
2022-12-18T20:35:39.439Z,9.80
2022-12-18T20:38:12.377Z,9.90
2022-12-18T20:40:46.350Z,9.83
2022-12-18T20:43:19.244Z,10.33
2022-12-18T20:45:52.268Z,9.93
2022-12-18T20:48:26.724Z,9.57
2022-12-18T20:51:07.354Z,11.80
2022-12-18T20:53:40.962Z,8.40
2022-12-18T20:56:21.304Z,9.20
2022-12-18T20:58:57.008Z,10.03
2022-12-18T21:01:30.444Z,9.53
2022-12-18T21:04:03.384Z,9.97
2022-12-18T21:06:36.913Z,10.23
2022-12-18T21:09:09.811Z,10.20
2022-12-18T21:12:01.444Z,13.13
2022-12-18T21:14:34.916Z,10.60
2022-12-18T21:17:07.878Z,10.10
2022-12-18T21:19:40.879Z,10.67
2022-12-18T21:22:14.260Z,8.63
2022-12-18T21:24:47.257Z,9.63
2022-12-18T21:27:20.369Z,10.23
2022-12-18T21:29:53.368Z,9.77
2022-12-18T21:32:26.279Z,11.33
2022-12-18T21:35:04.793Z,14.15
2022-12-18T21:37:37.701Z,10.87
2022-12-18T21:40:10.981Z,11.53
2022-12-18T21:43:02.709Z,9.93
2022-12-18T21:45:36.160Z,10.63
2022-12-18T21:48:09.098Z,10.17
2022-12-18T21:50:41.971Z,9.93
2022-12-18T21:53:14.915Z,8.63
2022-12-18T21:55:47.841Z,10.43
2022-12-18T21:58:20.761Z,9.90
2022-12-18T22:00:53.721Z,8.90
2022-12-18T22:03:26.760Z,12.00
2022-12-18T22:06:08.964Z,11.33
2022-12-18T22:08:43.561Z,11.80
2022-12-18T22:11:16.953Z,10.83
2022-12-18T22:13:51.080Z,10.67
2022-12-18T22:16:24.030Z,9.27
2022-12-18T22:18:57.317Z,10.80
2022-12-18T22:21:31.848Z,10.60
2022-12-18T22:24:09.463Z,10.27
2022-12-18T22:26:42.925Z,9.97
2022-12-18T22:29:35.928Z,9.87
2022-12-18T22:32:10.450Z,10.20
2022-12-18T22:34:44.957Z,9.70
2022-12-18T22:37:17.830Z,9.70
2022-12-18T22:39:50.705Z,9.93
2022-12-18T22:42:23.601Z,10.27
2022-12-18T22:44:56.838Z,10.83
2022-12-18T22:47:30.685Z,10.37
2022-12-18T22:50:03.999Z,10.23
2022-12-18T22:52:36.918Z,10.80
2022-12-18T22:55:09.927Z,10.80
2022-12-18T22:57:45.043Z,10.27
2022-12-18T23:00:24.907Z,9.23
2022-12-18T23:03:00.968Z,9.07
2022-12-18T23:05:34.216Z,11.10
2022-12-18T23:08:07.119Z,10.20
2022-12-18T23:10:40.247Z,10.10
2022-12-18T23:13:13.219Z,9.43
2022-12-18T23:15:49.055Z,9.27
2022-12-18T23:18:22.485Z,9.63
2022-12-18T23:20:55.339Z,9.93
2022-12-18T23:23:29.595Z,9.87
2022-12-18T23:26:06.892Z,10.63
2022-12-18T23:28:40.479Z,11.00
2022-12-18T23:31:20.939Z,9.57
2022-12-18T23:33:54.819Z,10.60
2022-12-18T23:36:28.138Z,10.67
2022-12-18T23:39:02.474Z,10.23
2022-12-18T23:41:35.406Z,11.23
2022-12-18T23:44:08.373Z,10.30
2022-12-18T23:46:41.336Z,10.83
2022-12-18T23:49:14.320Z,12.40
2022-12-18T23:51:47.196Z,10.57
2022-12-18T23:54:22.705Z,9.87
2022-12-18T23:57:06.551Z,10.33
2022-12-18T23:59:39.488Z,10.13
